Time;durP1;ratioP1;P1;durP2;ratioP2;P2;SDS_P1;SDS_P2;PMS_P1;PMS_P2;Temp;Humidity;BMP_temperature;BMP_pressure;BME280_temperature;BME280_humidity;BME280_pressure;Samples;Min_cycle;Max_cycle;Signal;HPM_P1;HPM_P2
2021/03/24 00:01:04;;;;;;;8.83;8.00;;;19.00;51.30;;;;;;5050979;28;20220;-78
2021/03/24 00:03:30;;;;;;;8.90;7.70;;;19.00;51.30;;;;;;5056856;28;20282;-77
2021/03/24 00:05:57;;;;;;;10.30;7.80;;;19.00;51.30;;;;;;5057867;28;20197;-75
2021/03/24 00:08:23;;;;;;;8.10;7.30;;;18.90;51.30;;;;;;5054139;28;20197;-76
2021/03/24 00:10:51;;;;;;;8.00;7.20;;;19.00;51.90;;;;;;5053456;28;20226;-76
2021/03/24 00:13:18;;;;;;;8.97;7.67;;;19.00;51.40;;;;;;5053770;28;20201;-76
2021/03/24 00:15:44;;;;;;;8.13;7.17;;;19.00;51.30;;;;;;5053256;28;20201;-76
2021/03/24 00:18:11;;;;;;;8.47;7.67;;;18.90;51.30;;;;;;5056482;28;20209;-77
2021/03/24 00:20:41;;;;;;;9.67;7.57;;;18.90;51.40;;;;;;5054252;28;20218;-76
2021/03/24 00:23:08;;;;;;;7.87;7.07;;;18.90;51.30;;;;;;5057012;28;20194;-76
2021/03/24 00:25:36;;;;;;;9.93;8.37;;;18.90;51.40;;;;;;5054897;28;20201;-76
2021/03/24 00:28:03;;;;;;;8.83;7.40;;;18.90;51.40;;;;;;5057549;28;20719;-76
2021/03/24 00:30:35;;;;;;;8.20;7.20;;;18.90;51.40;;;;;;5053671;28;20304;-77
2021/03/24 00:33:02;;;;;;;8.43;7.63;;;18.90;51.40;;;;;;5058518;28;20197;-77
2021/03/24 00:35:29;;;;;;;8.20;7.47;;;18.90;51.40;;;;;;5054884;28;20574;-77
2021/03/24 00:37:56;;;;;;;9.00;7.80;;;18.90;51.40;;;;;;5056343;28;20190;-77
2021/03/24 00:40:26;;;;;;;8.07;7.00;;;18.80;51.40;;;;;;5055104;28;20225;-76
2021/03/24 00:42:53;;;;;;;8.60;7.80;;;18.80;51.40;;;;;;5056234;28;20197;-77
2021/03/24 00:45:19;;;;;;;9.43;7.53;;;18.80;51.40;;;;;;5057897;28;20201;-77
2021/03/24 00:47:46;;;;;;;7.83;6.90;;;18.80;51.40;;;;;;5055910;28;20247;-77
2021/03/24 00:50:19;;;;;;;10.00;8.13;;;18.80;51.40;;;;;;5052032;28;20214;-78
2021/03/24 00:52:46;;;;;;;8.23;7.43;;;18.80;51.40;;;;;;5056666;28;20189;-78
2021/03/24 00:55:14;;;;;;;8.30;7.50;;;18.80;51.50;;;;;;5057239;28;20212;-77
2021/03/24 00:57:40;;;;;;;9.63;7.97;;;18.80;51.50;;;;;;5056460;28;20328;-77
2021/03/24 01:00:17;;;;;;;9.03;8.13;;;18.80;51.50;;;;;;5053843;28;20245;-77
2021/03/24 01:02:44;;;;;;;8.47;7.50;;;18.80;51.50;;;;;;5053529;28;20217;-78
2021/03/24 01:05:14;;;;;;;8.77;7.87;;;18.80;51.50;;;;;;5055688;28;20205;-78
2021/03/24 01:07:46;;;;;;;9.53;7.97;;;18.80;51.50;;;;;;5057165;28;20556;-79
2021/03/24 01:10:26;;;;;;;9.20;7.50;;;18.80;51.50;;;;;;5056824;28;20710;-77
2021/03/24 01:12:53;;;;;;;8.10;7.27;;;18.80;51.50;;;;;;5060288;28;20685;-77
2021/03/24 01:15:20;;;;;;;7.93;7.13;;;18.70;51.40;;;;;;5058685;28;20205;-77
2021/03/24 01:17:46;;;;;;;8.93;7.73;;;18.80;51.50;;;;;;5060680;28;20200;-77
2021/03/24 01:20:14;;;;;;;8.50;7.70;;;18.70;51.40;;;;;;5058347;28;20221;-77
2021/03/24 01:22:52;;;;;;;8.47;7.60;;;18.80;51.60;;;;;;5055535;28;20194;-77
2021/03/24 01:25:19;;;;;;;8.23;7.43;;;18.70;51.50;;;;;;5058224;28;20489;-77
2021/03/24 01:27:45;;;;;;;8.37;7.57;;;18.70;51.50;;;;;;5056215;28;20196;-78
2021/03/24 01:30:12;;;;;;;9.23;8.03;;;18.70;51.50;;;;;;5052798;28;20705;-77
2021/03/24 01:32:38;;;;;;;10.00;8.50;;;18.70;51.50;;;;;;5056175;28;20202;-77
2021/03/24 01:35:07;;;;;;;8.43;7.60;;;18.70;51.50;;;;;;5055728;28;20560;-78
2021/03/24 01:37:34;;;;;;;8.97;8.07;;;18.70;51.60;;;;;;5057263;28;20201;-78
2021/03/24 01:40:00;;;;;;;8.13;7.33;;;18.70;51.60;;;;;;5060245;28;20206;-78
2021/03/24 01:42:27;;;;;;;10.87;8.77;;;18.70;51.60;;;;;;5055679;28;20202;-78
2021/03/24 01:45:00;;;;;;;8.73;7.67;;;18.70;51.50;;;;;;5057456;28;20205;-78
2021/03/24 01:47:28;;;;;;;9.90;7.70;;;18.60;51.50;;;;;;5056915;28;20240;-78
2021/03/24 01:49:56;;;;;;;9.27;8.10;;;18.60;51.50;;;;;;5059560;28;20215;-78
2021/03/24 01:52:23;;;;;;;8.80;7.90;;;18.60;51.50;;;;;;5059219;28;20963;-78
2021/03/24 01:54:50;;;;;;;9.10;8.17;;;18.60;51.50;;;;;;5058961;28;20200;-77
2021/03/24 01:57:25;;;;;;;9.43;8.20;;;18.60;51.50;;;;;;5056018;28;20209;-78
2021/03/24 01:59:54;;;;;;;9.27;8.27;;;18.60;51.50;;;;;;5060163;28;20233;-78
2021/03/24 02:02:25;;;;;;;9.90;8.90;;;18.60;51.50;;;;;;5059754;28;20255;-77
2021/03/24 02:04:52;;;;;;;8.47;7.57;;;18.60;51.50;;;;;;5057776;28;20837;-77
2021/03/24 02:07:24;;;;;;;9.13;7.90;;;18.60;51.60;;;;;;5058178;28;20190;-78
2021/03/24 02:10:05;;;;;;;8.83;7.23;;;18.60;52.20;;;;;;5057683;28;20186;-77
2021/03/24 02:12:44;;;;;;;9.27;7.73;;;18.60;51.60;;;;;;5057708;28;20198;-77
2021/03/24 02:15:18;;;;;;;9.63;8.47;;;18.50;51.50;;;;;;5059538;28;20657;-75
2021/03/24 02:17:46;;;;;;;8.30;7.50;;;18.50;51.50;;;;;;5056353;28;20190;-75
2021/03/24 02:20:39;;;;;;;9.83;8.17;;;18.50;51.60;;;;;;5057435;28;20225;-75
2021/03/24 02:23:18;;;;;;;9.53;8.10;;;18.50;51.60;;;;;;5059080;28;20578;-76
2021/03/24 02:26:20;;;;;;;9.47;7.60;;;18.50;51.60;;;;;;5057210;28;20186;-76
2021/03/24 02:28:50;;;;;;;9.10;8.10;;;18.50;51.70;;;;;;5051940;28;20197;-75
2021/03/24 02:31:20;;;;;;;10.03;8.23;;;18.50;51.60;;;;;;5054837;28;20200;-76
2021/03/24 02:33:49;;;;;;;10.03;8.50;;;18.50;51.60;;;;;;5057242;28;20648;-77
2021/03/24 02:36:19;;;;;;;9.70;8.10;;;18.50;51.60;;;;;;5056777;28;20209;-77
2021/03/24 02:38:48;;;;;;;8.90;8.00;;;18.50;51.70;;;;;;5057548;28;20216;-76
2021/03/24 02:41:16;;;;;;;9.43;8.23;;;18.50;51.60;;;;;;5057139;28;20221;-76
2021/03/24 02:43:43;;;;;;;8.90;7.27;;;18.50;51.70;;;;;;5057550;28;20647;-76
2021/03/24 02:46:12;;;;;;;8.73;7.70;;;18.40;51.70;;;;;;5055548;28;20190;-76
2021/03/24 02:48:41;;;;;;;9.30;7.77;;;18.50;51.70;;;;;;5058693;28;20194;-76
2021/03/24 02:51:13;;;;;;;10.13;7.87;;;18.40;51.60;;;;;;5058057;28;20193;-76
2021/03/24 02:54:03;;;;;;;8.40;6.87;;;18.40;51.70;;;;;;5055861;28;20192;-76
2021/03/24 02:56:29;;;;;;;7.60;6.90;;;18.40;51.70;;;;;;5058064;28;20202;-76
2021/03/24 02:58:55;;;;;;;8.70;7.27;;;18.40;51.70;;;;;;5058325;28;20252;-76
2021/03/24 03:01:26;;;;;;;8.50;7.60;;;18.40;51.70;;;;;;5055265;28;20235;-77
2021/03/24 03:04:00;;;;;;;9.17;7.90;;;18.40;51.70;;;;;;5055650;28;20233;-76
2021/03/24 03:06:28;;;;;;;8.37;7.50;;;18.40;51.70;;;;;;5056754;28;20209;-77
2021/03/24 03:09:01;;;;;;;8.13;7.30;;;18.40;51.70;;;;;;5057800;28;20212;-76
2021/03/24 03:11:43;;;;;;;8.40;7.43;;;18.40;51.70;;;;;;5056845;28;20194;-77
2021/03/24 03:14:28;;;;;;;8.03;7.23;;;18.40;51.70;;;;;;5056936;28;20752;-76
2021/03/24 03:17:18;;;;;;;9.17;7.93;;;18.40;52.30;;;;;;5056921;28;20573;-76
2021/03/24 03:19:57;;;;;;;10.53;7.90;;;18.40;51.70;;;;;;5053720;28;20205;-76
2021/03/24 03:22:31;;;;;;;9.40;7.53;;;18.40;51.70;;;;;;5057029;28;20205;-76
2021/03/24 03:25:04;;;;;;;8.87;7.50;;;18.40;51.70;;;;;;5056328;28;20212;-76
2021/03/24 03:27:31;;;;;;;9.33;7.27;;;18.30;51.70;;;;;;5057669;28;20197;-76
2021/03/24 03:30:00;;;;;;;8.70;7.43;;;18.30;51.70;;;;;;5052644;28;20197;-76
2021/03/24 03:32:29;;;;;;;7.83;7.03;;;18.30;51.70;;;;;;5056707;28;20727;-76
2021/03/24 03:35:03;;;;;;;8.73;6.93;;;18.30;51.70;;;;;;5053711;28;20210;-76
2021/03/24 03:37:29;;;;;;;8.07;7.27;;;18.30;51.70;;;;;;5057376;28;20198;-76
2021/03/24 03:39:57;;;;;;;8.63;7.73;;;18.30;51.70;;;;;;5056317;28;20202;-76
2021/03/24 03:42:25;;;;;;;8.63;7.20;;;18.30;51.70;;;;;;5056504;28;20190;-76
2021/03/24 03:44:54;;;;;;;8.67;7.77;;;18.20;51.70;;;;;;5052196;28;20604;-76
2021/03/24 03:47:20;;;;;;;9.23;7.73;;;18.30;51.70;;;;;;5055829;28;20208;-77
2021/03/24 03:49:47;;;;;;;8.40;7.53;;;18.30;51.90;;;;;;5054235;28;20198;-76
2021/03/24 03:52:33;;;;;;;10.87;7.87;;;18.30;51.70;;;;;;5057299;28;20208;-76
2021/03/24 03:55:25;;;;;;;9.60;7.43;;;18.30;51.70;;;;;;5055553;28;20227;-78
2021/03/24 03:57:58;;;;;;;8.57;7.57;;;18.30;51.70;;;;;;5053852;28;20205;-77
2021/03/24 04:00:44;;;;;;;8.80;7.37;;;18.30;51.70;;;;;;5055367;28;20285;-78
2021/03/24 04:03:27;;;;;;;9.33;8.03;;;18.30;51.70;;;;;;5055540;28;20193;-78
2021/03/24 04:06:08;;;;;;;8.47;7.10;;;18.20;51.70;;;;;;5054478;28;20194;-77
2021/03/24 04:08:35;;;;;;;8.23;7.37;;;18.20;51.70;;;;;;5055643;28;20606;-78
2021/03/24 04:11:08;;;;;;;8.33;7.43;;;18.20;51.70;;;;;;5058889;28;20205;-78
2021/03/24 04:13:42;;;;;;;8.73;7.43;;;18.20;51.80;;;;;;5055523;28;20190;-79
2021/03/24 04:16:10;;;;;;;9.10;7.17;;;18.20;51.70;;;;;;5054399;28;20205;-78
2021/03/24 04:18:48;;;;;;;8.93;7.80;;;18.20;51.70;;;;;;5055591;28;20206;-77
2021/03/24 04:21:15;;;;;;;9.77;7.13;;;18.20;51.70;;;;;;5054902;28;20213;-77
2021/03/24 04:23:47;;;;;;;9.67;7.17;;;18.20;51.80;;;;;;5056148;28;20201;-77
2021/03/24 04:26:24;;;;;;;8.37;7.03;;;18.20;51.80;;;;;;5052193;28;20194;-77
2021/03/24 04:28:55;;;;;;;7.87;7.07;;;18.20;51.80;;;;;;5054761;28;20711;-77
2021/03/24 04:31:25;;;;;;;7.73;6.47;;;18.10;51.80;;;;;;5055734;28;20202;-78
2021/03/24 04:33:52;;;;;;;10.77;7.40;;;18.20;51.80;;;;;;5060713;28;20642;-77
2021/03/24 04:36:38;;;;;;;8.00;6.73;;;18.20;51.80;;;;;;5055973;28;20193;-78
2021/03/24 04:39:15;;;;;;;9.37;6.60;;;18.20;51.80;;;;;;5055100;28;20186;-77
2021/03/24 04:41:46;;;;;;;9.77;7.37;;;18.10;51.80;;;;;;5055050;28;20262;-78
2021/03/24 04:44:21;;;;;;;10.17;7.10;;;18.10;51.70;;;;;;5062209;28;20206;-78
2021/03/24 04:46:50;;;;;;;7.63;6.83;;;18.10;51.70;;;;;;5057783;28;20555;-77
2021/03/24 04:49:22;;;;;;;8.93;7.20;;;18.10;51.70;;;;;;5058337;28;20236;-76
2021/03/24 04:51:49;;;;;;;10.83;7.10;;;18.10;51.70;;;;;;5060881;28;20206;-76
2021/03/24 04:54:19;;;;;;;8.27;6.87;;;18.10;51.80;;;;;;5058926;28;20568;-76
2021/03/24 04:56:55;;;;;;;9.07;7.17;;;18.10;51.70;;;;;;5057444;28;20193;-77
2021/03/24 04:59:29;;;;;;;7.77;6.67;;;18.10;52.40;;;;;;5058620;28;20256;-77
2021/03/24 05:02:04;;;;;;;9.23;7.40;;;18.10;51.80;;;;;;5058850;28;20228;-77
2021/03/24 05:04:45;;;;;;;8.00;7.10;;;18.10;51.80;;;;;;5061054;28;20449;-76
2021/03/24 05:07:20;;;;;;;9.07;7.63;;;18.10;51.80;;;;;;5057671;28;20205;-78
2021/03/24 05:09:47;;;;;;;7.67;6.90;;;18.10;51.80;;;;;;5057161;28;20196;-76
2021/03/24 05:12:21;;;;;;;9.57;7.53;;;18.10;51.80;;;;;;5060655;28;20197;-76
2021/03/24 05:15:02;;;;;;;7.60;6.90;;;18.10;51.80;;;;;;5057349;28;20192;-76
2021/03/24 05:17:32;;;;;;;11.37;7.60;;;18.10;51.80;;;;;;5055280;28;20655;-77
2021/03/24 05:20:31;;;;;;;8.77;7.33;;;18.00;51.80;;;;;;5062399;28;20721;-76
2021/03/24 05:22:58;;;;;;;9.87;7.90;;;18.00;51.80;;;;;;5020312;28;20622;-76
2021/03/24 05:25:32;;;;;;;8.97;7.73;;;18.00;51.80;;;;;;5052454;28;20197;-76
2021/03/24 05:28:02;;;;;;;13.20;7.80;;;18.00;51.80;;;;;;5057160;28;20209;-76
2021/03/24 05:30:35;;;;;;;8.80;7.87;;;18.10;51.90;;;;;;5055419;28;20201;-76
2021/03/24 05:33:12;;;;;;;8.83;7.77;;;18.10;51.90;;;;;;5059914;28;20716;-76
2021/03/24 05:36:10;;;;;;;10.33;8.17;;;18.00;51.80;;;;;;5054596;28;20193;-76
2021/03/24 05:38:50;;;;;;;8.63;7.60;;;18.00;51.90;;;;;;5051221;28;20210;-76
2021/03/24 05:41:32;;;;;;;9.07;7.30;;;18.00;51.90;;;;;;5058799;28;20201;-76
2021/03/24 05:44:14;;;;;;;9.23;7.40;;;18.00;51.90;;;;;;5058548;28;20698;-76
2021/03/24 05:47:18;;;;;;;8.83;7.80;;;18.00;51.90;;;;;;5058099;28;20220;-76
2021/03/24 05:50:03;;;;;;;9.50;7.37;;;18.00;51.90;;;;;;5054919;28;20220;-76
2021/03/24 05:52:52;;;;;;;9.23;7.80;;;18.00;51.90;;;;;;5054961;28;20205;-76
2021/03/24 05:55:48;;;;;;;9.43;7.87;;;18.00;52.00;;;;;;5059319;28;20204;-76
2021/03/24 05:58:36;;;;;;;10.57;8.43;;;18.00;52.00;;;;;;5058213;28;20204;-76
2021/03/24 06:01:14;;;;;;;9.83;7.80;;;18.00;52.10;;;;;;5058103;28;21078;-76
2021/03/24 06:03:47;;;;;;;8.60;7.47;;;18.00;52.10;;;;;;5055292;28;20259;-76
2021/03/24 06:06:50;;;;;;;10.77;7.90;;;18.00;52.10;;;;;;5058747;28;20197;-76
2021/03/24 06:09:34;;;;;;;8.63;7.73;;;18.00;52.20;;;;;;5053044;28;20197;-76
2021/03/24 06:12:00;;;;;;;10.07;7.60;;;18.00;52.20;;;;;;5058703;28;20612;-76
2021/03/24 06:14:56;;;;;;;9.40;7.70;;;18.00;52.10;;;;;;5053841;28;20197;-76
2021/03/24 06:17:46;;;;;;;11.37;7.60;;;17.90;52.10;;;;;;5056003;28;20954;-76
2021/03/24 06:20:31;;;;;;;8.70;7.80;;;17.90;52.20;;;;;;5059283;28;20299;-76
2021/03/24 06:23:28;;;;;;;8.83;7.93;;;17.90;52.20;;;;;;5058228;28;20325;-83
2021/03/24 06:26:07;;;;;;;25.63;10.80;;;18.00;52.20;;;;;;5058664;28;20225;-77
2021/03/24 06:28:53;;;;;;;92.93;21.17;;;17.90;53.00;;;;;;5055952;28;20201;-80
2021/03/24 06:31:24;;;;;;;75.57;21.30;;;18.00;54.30;;;;;;5061320;28;20918;-81
2021/03/24 06:34:20;;;;;;;67.60;19.10;;;18.00;55.00;;;;;;5057656;28;20204;-82
2021/03/24 06:37:14;;;;;;;52.97;17.53;;;18.00;54.60;;;;;;5062346;28;20193;-77
2021/03/24 06:40:07;;;;;;;49.47;18.17;;;18.00;54.10;;;;;;5057841;28;20193;-79
2021/03/24 06:42:45;;;;;;;47.20;17.63;;;18.00;53.80;;;;;;5056977;28;20220;-79
2021/03/24 06:45:29;;;;;;;46.90;16.90;;;18.00;53.60;;;;;;5056862;28;20190;-78
2021/03/24 06:48:23;;;;;;;33.40;15.60;;;18.00;53.30;;;;;;5063597;28;20197;-81
2021/03/24 06:50:50;;;;;;;25.37;13.67;;;17.90;53.00;;;;;;5057872;28;20585;-79
2021/03/24 06:53:43;;;;;;;36.03;15.70;;;18.00;53.20;;;;;;5061327;28;20174;-82
2021/03/24 06:56:57;;;;;;;26.10;13.87;;;17.90;53.30;;;;;;5055467;28;20244;-77
2021/03/24 06:59:51;;;;;;;22.70;13.20;;;17.90;53.00;;;;;;5059506;28;20699;-80
2021/03/24 07:02:34;;;;;;;49.17;21.37;;;18.00;52.90;;;;;;5060702;28;20221;-78
2021/03/24 07:05:10;;;;;;;51.77;21.27;;;17.90;55.00;;;;;;5057887;28;20225;-78
2021/03/24 07:07:44;;;;;;;59.33;21.87;;;17.90;55.50;;;;;;5055641;28;20198;-79
2021/03/24 07:10:26;;;;;;;47.30;20.53;;;17.90;55.20;;;;;;5054530;28;20707;-79
2021/03/24 07:13:17;;;;;;;41.30;19.47;;;18.00;54.60;;;;;;5057850;28;20189;-79
2021/03/24 07:16:16;;;;;;;45.97;21.30;;;18.00;54.10;;;;;;5056758;28;20208;-79
2021/03/24 07:19:10;;;;;;;38.40;19.87;;;17.90;53.60;;;;;;5013351;28;20294;-79
2021/03/24 07:22:13;;;;;;;37.10;20.63;;;17.90;53.10;;;;;;5051246;28;20209;-79
2021/03/24 07:25:18;;;;;;;37.40;20.33;;;17.90;52.70;;;;;;5060154;28;20185;-80
2021/03/24 07:28:03;;;;;;;38.03;19.77;;;17.90;52.40;;;;;;5060745;28;21674;-80
2021/03/24 07:31:11;;;;;;;35.43;20.10;;;17.90;52.30;;;;;;5057574;28;20194;-80
2021/03/24 07:33:50;;;;;;;34.00;18.57;;;17.90;52.30;;;;;;5061650;28;20278;-81
2021/03/24 07:36:42;;;;;;;38.27;18.57;;;18.00;52.40;;;;;;5056181;28;20197;-80
2021/03/24 07:39:48;;;;;;;30.20;17.90;;;17.90;52.30;;;;;;5054838;28;20312;-79
2021/03/24 07:42:47;;;;;;;28.77;17.83;;;17.90;52.40;;;;;;5055149;28;20217;-80
2021/03/24 07:45:39;;;;;;;28.17;17.00;;;17.90;52.30;;;;;;5057507;28;20945;-80
2021/03/24 07:48:24;;;;;;;24.40;16.60;;;17.90;52.30;;;;;;5057353;28;20231;-81
2021/03/24 07:51:16;;;;;;;23.07;16.00;;;17.90;52.30;;;;;;5061653;28;20919;-80
2021/03/24 07:53:51;;;;;;;26.43;17.27;;;17.90;52.30;;;;;;5055658;28;20194;-80
2021/03/24 07:56:22;;;;;;;32.80;16.63;;;17.90;53.00;;;;;;5060443;28;20185;-82
2021/03/24 07:59:12;;;;;;;26.67;16.57;;;18.00;53.00;;;;;;5055969;28;20221;-93
2021/03/24 08:01:50;;;;;;;29.17;16.47;;;18.00;53.40;;;;;;5054018;28;20255;-83
2021/03/24 08:04:51;;;;;;;25.53;16.20;;;18.20;54.10;;;;;;5060674;28;20190;-87
2021/03/24 08:07:26;;;;;;;27.83;15.27;;;18.30;55.10;;;;;;5059721;28;20767;-90
2021/03/24 08:10:22;;;;;;;23.50;15.10;;;18.40;55.30;;;;;;5062580;28;20201;-85
2021/03/24 08:13:08;;;;;;;22.23;14.23;;;18.50;55.40;;;;;;5058636;28;20235;-85
2021/03/24 08:15:51;;;;;;;21.10;14.43;;;18.60;55.90;;;;;;5058723;28;20201;-84
2021/03/24 08:18:49;;;;;;;21.47;13.70;;;18.70;55.30;;;;;;5063733;28;20197;-88
2021/03/24 08:21:54;;;;;;;22.63;13.80;;;18.80;55.00;;;;;;5065769;28;20221;-87
2021/03/24 08:24:40;;;;;;;21.50;13.40;;;18.90;54.70;;;;;;5035104;28;20677;-84
2021/03/24 08:27:16;;;;;;;18.67;13.57;;;19.00;55.20;;;;;;5061239;28;20235;-88
2021/03/24 08:30:14;;;;;;;19.00;13.60;;;19.00;54.60;;;;;;5062046;28;20240;-86
2021/03/24 08:33:18;;;;;;;18.33;11.57;;;19.10;54.30;;;;;;5066558;28;20728;-87
2021/03/24 08:36:07;;;;;;;16.03;11.70;;;19.20;54.10;;;;;;5047392;28;20216;-85
2021/03/24 08:38:52;;;;;;;19.73;12.77;;;19.30;53.90;;;;;;5063099;28;20193;-83
2021/03/24 08:41:52;;;;;;;17.60;12.87;;;19.30;53.70;;;;;;5060767;28;20220;-82
2021/03/24 08:44:30;;;;;;;17.43;11.80;;;19.40;53.50;;;;;;5062607;28;20189;-87
2021/03/24 08:47:11;;;;;;;19.37;12.03;;;19.50;53.50;;;;;;5064589;28;20202;-89
2021/03/24 08:49:40;;;;;;;17.43;11.77;;;19.50;53.30;;;;;;5063068;28;20682;-85
2021/03/24 08:52:29;;;;;;;15.90;11.27;;;19.60;53.10;;;;;;5061073;28;20190;-87
2021/03/24 08:55:02;;;;;;;14.67;11.17;;;19.70;53.10;;;;;;5058583;28;20258;-85
2021/03/24 08:57:41;;;;;;;14.17;10.53;;;19.70;52.90;;;;;;5066931;28;20201;-85
2021/03/24 09:00:25;;;;;;;13.37;10.40;;;19.80;52.80;;;;;;5064540;28;20241;-86
2021/03/24 09:03:25;;;;;;;14.17;10.90;;;19.80;52.70;;;;;;5042229;28;20201;-84
2021/03/24 09:06:16;;;;;;;18.23;10.60;;;19.80;52.90;;;;;;5061543;28;20661;-83
2021/03/24 09:08:58;;;;;;;21.07;10.73;;;19.90;52.50;;;;;;5061399;28;20772;-82
2021/03/24 09:11:43;;;;;;;14.63;10.37;;;19.90;51.40;;;;;;5050724;28;20205;-84
2021/03/24 09:14:27;;;;;;;15.00;10.63;;;19.90;51.90;;;;;;5055241;28;20199;-84
2021/03/24 09:17:32;;;;;;;13.87;10.00;;;19.90;51.70;;;;;;5058335;28;20204;-82
2021/03/24 09:20:18;;;;;;;17.77;10.33;;;20.00;51.70;;;;;;5059567;28;20996;-82
2021/03/24 09:22:59;;;;;;;15.70;10.40;;;20.00;51.60;;;;;;5062429;28;20327;-83
2021/03/24 09:25:56;;;;;;;15.37;9.80;;;20.10;51.70;;;;;;5062395;28;20579;-87
2021/03/24 09:28:59;;;;;;;13.67;9.30;;;20.10;51.50;;;;;;5057131;28;20210;-81
2021/03/24 09:31:42;;;;;;;15.23;9.63;;;20.20;51.60;;;;;;5062658;28;20193;-82
2021/03/24 09:34:32;;;;;;;13.03;9.30;;;20.20;51.50;;;;;;5060166;28;20202;-81
2021/03/24 09:37:02;;;;;;;12.50;9.47;;;20.20;51.00;;;;;;5060525;28;20275;-85
2021/03/24 09:39:47;;;;;;;11.90;9.47;;;20.30;51.00;;;;;;5060190;28;20232;-84
2021/03/24 09:42:34;;;;;;;13.40;9.77;;;20.30;51.60;;;;;;5059865;28;20217;-85
2021/03/24 09:45:14;;;;;;;15.87;10.00;;;20.40;51.00;;;;;;5056763;28;20205;-84
2021/03/24 09:47:48;;;;;;;12.93;10.30;;;20.40;50.90;;;;;;5062372;28;20500;-83
2021/03/24 09:50:37;;;;;;;14.83;10.27;;;20.40;50.50;;;;;;5059481;28;20198;-83
2021/03/24 09:53:11;;;;;;;13.10;9.47;;;20.50;51.00;;;;;;5060054;28;20688;-82
2021/03/24 09:55:40;;;;;;;13.00;9.10;;;20.50;51.10;;;;;;5062165;28;20198;-88
2021/03/24 09:58:07;;;;;;;13.10;9.13;;;20.50;51.10;;;;;;5064345;28;20197;-82
2021/03/24 10:01:13;;;;;;;13.70;10.07;;;20.60;51.00;;;;;;5060183;28;20241;-82
2021/03/24 10:04:16;;;;;;;11.47;8.67;;;20.60;50.70;;;;;;5061507;28;20218;-77
2021/03/24 10:06:49;;;;;;;11.53;8.80;;;20.70;49.90;;;;;;5061156;28;20243;-84
2021/03/24 10:09:30;;;;;;;12.23;9.63;;;20.60;50.60;;;;;;5064651;28;20193;-83
2021/03/24 10:12:05;;;;;;;11.60;8.93;;;20.70;50.90;;;;;;5059897;28;20200;-82
2021/03/24 10:14:59;;;;;;;17.00;9.53;;;20.70;50.50;;;;;;5058940;28;20201;-82
2021/03/24 10:17:31;;;;;;;14.97;9.90;;;20.80;50.80;;;;;;5057128;28;21189;-83
2021/03/24 10:20:07;;;;;;;14.53;8.73;;;20.80;50.80;;;;;;5062291;28;20229;-81
2021/03/24 10:22:42;;;;;;;16.10;9.73;;;20.90;50.70;;;;;;5066895;28;20883;-85
2021/03/24 10:25:23;;;;;;;12.90;9.60;;;20.90;51.00;;;;;;5065984;28;20184;-84
2021/03/24 10:27:53;;;;;;;13.83;8.47;;;21.00;50.90;;;;;;5065722;28;20209;-82
2021/03/24 10:30:26;;;;;;;13.30;9.00;;;21.00;50.90;;;;;;5061014;28;20189;-82
2021/03/24 10:33:19;;;;;;;12.67;8.60;;;21.00;51.90;;;;;;5060551;28;20797;-82
2021/03/24 10:36:20;;;;;;;10.90;8.40;;;21.00;50.80;;;;;;5061630;28;21460;-83
2021/03/24 10:38:49;;;;;;;14.33;8.33;;;21.10;50.70;;;;;;5060617;28;20198;-82
2021/03/24 10:41:16;;;;;;;16.40;10.10;;;21.10;50.80;;;;;;5061089;28;20225;-84
2021/03/24 10:44:13;;;;;;;11.70;8.93;;;21.20;51.00;;;;;;5061141;28;20891;-84
2021/03/24 10:47:13;;;;;;;11.70;9.10;;;21.20;50.60;;;;;;5059041;28;20579;-80
2021/03/24 10:50:20;;;;;;;13.90;9.67;;;21.30;50.50;;;;;;5062672;28;20447;-80
2021/03/24 10:53:01;;;;;;;12.33;8.27;;;21.30;50.70;;;;;;5053310;28;20201;-85
2021/03/24 10:55:30;;;;;;;11.70;8.40;;;21.30;50.80;;;;;;5059595;28;20190;-84
2021/03/24 10:58:16;;;;;;;13.90;8.13;;;21.40;50.90;;;;;;5057212;28;20186;-84
2021/03/24 11:00:52;;;;;;;13.03;9.13;;;21.40;50.80;;;;;;5058108;28;20737;-88
2021/03/24 11:03:21;;;;;;;11.50;9.00;;;21.40;50.50;;;;;;5061771;28;20190;-79
2021/03/24 11:05:50;;;;;;;13.37;8.10;;;21.40;50.40;;;;;;5054447;28;20212;-78
2021/03/24 11:08:53;;;;;;;12.20;9.13;;;21.30;48.50;;;;;;5051625;28;20197;-78
2021/03/24 11:11:44;;;;;;;11.17;8.27;;;21.20;48.40;;;;;;5061220;28;20196;-77
2021/03/24 11:14:16;;;;;;;12.50;9.37;;;21.00;48.50;;;;;;5056470;28;20237;-77
2021/03/24 11:16:58;;;;;;;14.77;10.03;;;21.00;48.60;;;;;;5059266;28;20216;-78
2021/03/24 11:19:31;;;;;;;12.57;9.80;;;20.90;48.60;;;;;;5056465;28;20220;-77
2021/03/24 11:22:29;;;;;;;12.90;10.20;;;20.90;48.60;;;;;;5058548;28;20832;-78
2021/03/24 11:25:18;;;;;;;14.57;10.20;;;20.90;48.70;;;;;;5058434;28;20189;-78
2021/03/24 11:27:53;;;;;;;13.33;10.10;;;20.80;48.80;;;;;;5057143;28;20201;-78
2021/03/24 11:30:45;;;;;;;12.70;9.47;;;20.80;49.00;;;;;;5054633;28;20289;-77
2021/03/24 11:33:11;;;;;;;12.57;9.27;;;20.70;48.80;;;;;;5052338;28;20201;-78
2021/03/24 11:35:53;;;;;;;12.40;9.33;;;20.70;49.00;;;;;;5054470;28;20193;-78
2021/03/24 11:38:48;;;;;;;11.57;8.77;;;20.70;49.00;;;;;;5052252;28;20193;-77
2021/03/24 11:41:25;;;;;;;12.20;9.03;;;20.70;49.10;;;;;;5055535;28;20213;-77
2021/03/24 11:44:10;;;;;;;10.50;8.53;;;20.70;49.20;;;;;;5056956;28;20200;-77
2021/03/24 11:46:42;;;;;;;11.23;9.20;;;20.60;49.10;;;;;;5056475;28;20331;-77
2021/03/24 11:49:36;;;;;;;12.60;8.37;;;20.60;49.20;;;;;;5055205;28;20196;-86
2021/03/24 11:52:40;;;;;;;13.65;7.95;;;20.60;51.00;;;;;;5064747;28;20654;-83
2021/03/24 11:55:28;;;;;;;10.63;7.73;;;20.80;50.90;;;;;;5052991;28;20197;-84
2021/03/24 11:58:22;;;;;;;8.83;7.57;;;20.90;50.90;;;;;;5061986;28;20190;-83
2021/03/24 12:01:29;;;;;;;10.47;7.90;;;21.00;50.80;;;;;;5062095;28;20761;-84
2021/03/24 12:04:17;;;;;;;9.20;7.53;;;21.00;50.40;;;;;;5048577;28;20446;-83
2021/03/24 12:06:46;;;;;;;14.53;8.57;;;21.10;50.60;;;;;;5061045;28;20407;-79
2021/03/24 12:09:27;;;;;;;10.50;8.13;;;21.10;50.60;;;;;;5058756;28;20416;-83
2021/03/24 12:12:09;;;;;;;10.07;7.10;;;21.10;50.40;;;;;;5058973;28;20266;-83
2021/03/24 12:14:37;;;;;;;13.70;7.70;;;21.20;50.40;;;;;;5057993;28;20201;-83
2021/03/24 12:17:25;;;;;;;7.77;6.83;;;21.20;50.60;;;;;;5064530;28;20233;-84
2021/03/24 12:20:03;;;;;;;7.70;6.30;;;21.30;50.70;;;;;;5064764;28;20240;-78
2021/03/24 12:22:31;;;;;;;13.30;6.70;;;21.30;50.00;;;;;;5062913;28;20224;-89
2021/03/24 12:25:03;;;;;;;12.80;6.50;;;21.20;50.30;;;;;;5059334;28;20190;-89
2021/03/24 12:27:34;;;;;;;10.67;6.23;;;21.30;50.10;;;;;;5053650;28;20214;-91
2021/03/24 12:30:18;;;;;;;8.47;6.40;;;21.30;50.20;;;;;;5055792;28;20194;-84
2021/03/24 12:32:45;;;;;;;7.30;5.67;;;21.40;50.00;;;;;;5059952;28;20204;-87
2021/03/24 12:35:37;;;;;;;8.53;5.70;;;21.40;49.80;;;;;;5060153;28;20185;-88
2021/03/24 12:38:08;;;;;;;7.50;5.73;;;21.40;49.70;;;;;;5057137;28;20657;-85
2021/03/24 12:40:50;;;;;;;7.53;5.50;;;21.50;49.90;;;;;;5060657;28;20195;-85
2021/03/24 12:43:35;;;;;;;7.95;6.10;;;21.50;49.70;;;;;;5055984;28;20444;-90
2021/03/24 12:46:16;;;;;;;7.07;6.37;;;21.60;50.60;;;;;;5059180;28;20186;-85
2021/03/24 12:48:50;;;;;;;11.30;7.37;;;21.60;49.80;;;;;;5058537;28;20417;-88
2021/03/24 12:51:38;;;;;;;9.73;6.37;;;21.60;50.10;;;;;;5079620;28;20511;-90
2021/03/24 12:54:09;;;;;;;9.13;6.40;;;21.70;49.60;;;;;;5053626;28;20220;-91
2021/03/24 12:56:57;;;;;;;7.67;5.83;;;21.80;49.30;;;;;;5080103;28;20647;-88
2021/03/24 12:59:36;;;;;;;8.50;6.80;;;21.70;49.30;;;;;;5058565;28;20229;-85
2021/03/24 13:02:22;;;;;;;7.43;5.85;;;21.80;49.20;;;;;;5057473;28;20233;-84
2021/03/24 13:05:10;;;;;;;7.60;5.87;;;21.80;49.50;;;;;;5066451;28;20466;-84
2021/03/24 13:07:53;;;;;;;9.20;5.77;;;21.80;49.40;;;;;;5061864;28;20201;-81
2021/03/24 13:10:33;;;;;;;9.00;5.20;;;21.80;49.50;;;;;;5066154;28;20204;-81
2021/03/24 13:13:32;;;;;;;8.07;5.33;;;21.80;49.10;;;;;;5060631;28;20197;-79
2021/03/24 13:16:00;;;;;;;7.20;5.03;;;21.80;48.80;;;;;;5059679;28;20201;-80
2021/03/24 13:18:48;;;;;;;6.50;4.60;;;21.60;48.80;;;;;;5063897;28;20208;-79
2021/03/24 13:21:33;;;;;;;4.83;4.07;;;21.60;48.90;;;;;;5059953;28;20426;-80
2021/03/24 13:24:31;;;;;;;5.63;4.30;;;21.50;49.00;;;;;;5060390;28;20275;-80
2021/03/24 13:27:03;;;;;;;6.13;4.63;;;21.50;49.00;;;;;;5062263;28;20189;-80
2021/03/24 13:29:48;;;;;;;5.57;4.43;;;21.50;49.20;;;;;;5061903;28;20210;-79
2021/03/24 13:33:00;;;;;;;5.40;4.60;;;21.50;49.30;;;;;;5061627;28;20189;-80
2021/03/24 13:35:52;;;;;;;6.50;4.53;;;21.40;49.20;;;;;;5027757;28;20292;-80
2021/03/24 13:38:24;;;;;;;7.83;5.17;;;21.40;49.20;;;;;;5063113;28;20197;-79
2021/03/24 13:40:53;;;;;;;6.00;5.00;;;21.40;49.30;;;;;;5064097;28;20201;-79
2021/03/24 13:43:30;;;;;;;4.93;4.33;;;21.40;49.30;;;;;;5060573;28;20274;-80